createdAt,value
2023-01-06T07:07:58.097Z,141172.59
2023-01-06T07:13:02.950Z,141198.44
2023-01-06T07:18:07.822Z,141181.19
2023-01-06T07:23:12.628Z,141168.84
2023-01-06T07:28:16.050Z,141194.72
2023-01-06T07:33:20.346Z,141202.13
2023-01-06T07:38:25.126Z,141213.22
2023-01-06T07:43:28.606Z,141219.34
2023-01-06T07:48:31.954Z,141236.63
2023-01-06T07:53:36.876Z,141236.63
2023-01-06T07:58:40.246Z,141250.13
2023-01-06T08:03:43.624Z,141266.16
2023-01-06T08:08:48.518Z,141298.19
2023-01-06T08:13:51.939Z,141304.34
2023-01-06T08:18:55.335Z,141300.66
2023-01-06T08:24:02.580Z,141304.34
2023-01-06T08:29:08.502Z,141342.56
2023-01-06T08:34:14.400Z,141362.25
2023-01-06T08:39:19.190Z,141347.47
2023-01-06T08:44:22.654Z,141378.28
2023-01-06T08:49:59.840Z,141357.31
2023-01-06T08:55:04.826Z,141417.69
2023-01-06T09:00:09.284Z,141422.66
2023-01-06T09:05:12.746Z,141449.78
2023-01-06T09:10:21.935Z,141446.03
2023-01-06T09:15:27.197Z,141491.66
2023-01-06T09:20:38.809Z,141500.22
2023-01-06T09:25:43.686Z,141519.97
2023-01-06T09:30:50.400Z,141537.25
2023-01-06T09:35:59.533Z,141559.41
2023-01-06T09:41:27.382Z,141629.72
2023-01-06T09:46:33.422Z,141651.94
2023-01-06T09:51:41.627Z,141633.44
2023-01-06T09:56:46.638Z,141672.88
2023-01-06T10:01:52.153Z,141709.94
2023-01-06T10:07:01.951Z,141713.63
2023-01-06T10:12:17.996Z,141744.47
2023-01-06T10:17:36.249Z,141786.41
2023-01-06T10:22:47.316Z,141825.94
2023-01-06T10:27:52.705Z,141859.25
2023-01-06T10:33:18.937Z,141908.66
2023-01-06T10:38:31.164Z,141933.34
2023-01-06T10:43:58.002Z,141971.56
2023-01-06T10:49:04.649Z,142021.00
2023-01-06T10:54:10.659Z,142054.34
2023-01-06T10:59:19.348Z,142077.81
2023-01-06T11:04:25.178Z,142098.84
2023-01-06T11:09:32.893Z,142102.53
2023-01-06T11:14:50.597Z,142107.47
2023-01-06T11:20:07.798Z,142122.28
2023-01-06T11:25:23.840Z,142137.13
2023-01-06T11:30:28.575Z,142135.91
2023-01-06T11:35:33.847Z,142126.03
2023-01-06T11:40:38.818Z,142150.69
2023-01-06T11:46:07.179Z,142140.84
2023-01-06T11:51:11.441Z,142160.63
2023-01-06T11:56:19.731Z,142190.28
2023-01-06T12:01:28.834Z,142213.78
2023-01-06T12:06:34.936Z,142222.41
2023-01-06T12:11:45.170Z,142226.13
2023-01-06T12:16:59.213Z,142244.69
2023-01-06T12:22:03.084Z,142299.09
2023-01-06T12:27:35.413Z,142300.31
2023-01-06T12:32:40.081Z,142328.75
2023-01-06T12:37:47.265Z,142359.69
2023-01-06T12:42:56.826Z,142363.38
2023-01-06T12:48:06.298Z,142359.69
2023-01-06T12:53:23.654Z,142370.78
2023-01-06T12:58:34.371Z,142379.47
2023-01-06T13:03:53.192Z,142364.63
2023-01-06T13:09:07.789Z,142390.59
2023-01-06T13:14:18.563Z,142409.16
2023-01-06T13:19:32.784Z,142461.09
2023-01-06T13:24:48.585Z,142442.56
2023-01-06T13:30:01.064Z,142453.69
2023-01-06T13:35:25.516Z,142456.16
2023-01-06T13:40:30.271Z,142459.84
2023-01-06T13:45:43.463Z,142451.22
2023-01-06T13:50:47.055Z,142437.63
2023-01-06T13:56:10.505Z,142451.22
2023-01-06T14:01:31.200Z,142471.03
2023-01-06T14:06:46.967Z,142464.84
2023-01-06T14:11:50.416Z,142463.59
2023-01-06T14:16:54.749Z,142488.31
2023-01-06T14:22:15.141Z,142497.00
2023-01-06T14:27:35.276Z,142508.13
2023-01-06T14:33:12.448Z,142474.72
2023-01-06T14:38:30.628Z,142409.16
2023-01-06T14:43:42.342Z,142406.69
2023-01-06T14:48:49.509Z,142404.19
2023-01-06T14:54:10.840Z,142373.25
2023-01-06T14:59:16.030Z,142365.84
2023-01-06T15:04:22.951Z,142353.50
2023-01-06T15:09:29.732Z,142316.38
2023-01-06T15:14:35.716Z,142279.28
2023-01-06T15:19:43.908Z,142271.88
2023-01-06T15:24:47.806Z,142232.28
2023-01-06T15:30:01.605Z,142218.72
2023-01-06T15:35:05.305Z,142160.63
2023-01-06T15:40:09.361Z,142145.78
2023-01-06T15:45:24.524Z,142133.44
2023-01-06T15:50:38.135Z,142114.88
2023-01-06T15:55:44.192Z,142092.63
2023-01-06T16:00:50.948Z,142098.84
2023-01-06T16:06:11.250Z,142087.69
2023-01-06T16:11:47.188Z,142085.22
2023-01-06T16:16:52.019Z,142072.88
2023-01-06T16:21:56.055Z,142071.66
2023-01-06T16:27:03.449Z,142076.59
2023-01-06T16:32:21.797Z,142079.06
2023-01-06T16:37:26.917Z,142055.56
2023-01-06T16:42:42.359Z,142059.28
2023-01-06T16:48:01.686Z,142064.19
2023-01-06T16:53:18.171Z,142045.69
2023-01-06T16:58:22.582Z,142064.19
2023-01-06T17:03:26.953Z,142070.41
2023-01-06T17:08:32.467Z,142049.41
2023-01-06T17:13:39.837Z,142056.81
2023-01-06T17:18:49.554Z,142055.56
2023-01-06T17:23:58.667Z,142067.94
2023-01-06T17:29:02.428Z,142080.28
2023-01-06T17:34:11.414Z,142075.34
2023-01-06T17:39:18.273Z,142058.03
2023-01-06T17:44:28.927Z,142060.50
2023-01-06T17:49:34.391Z,142056.81
2023-01-06T17:54:57.129Z,142045.69
2023-01-06T18:00:00.508Z,142034.56
2023-01-06T18:05:12.405Z,142025.94
2023-01-06T18:10:20.123Z,142006.16
2023-01-06T18:15:30.868Z,141998.75
2023-01-06T18:20:34.464Z,141992.59
2023-01-06T18:25:39.867Z,142029.63
2023-01-06T18:30:43.197Z,142029.63
2023-01-06T18:35:46.910Z,142016.06
2023-01-06T18:40:51.645Z,141988.88
2023-01-06T18:45:56.681Z,141972.81
2023-01-06T18:51:01.206Z,141951.84
2023-01-06T18:56:11.270Z,141939.50
2023-01-06T19:01:42.550Z,141940.75
2023-01-06T19:06:47.823Z,141928.41
2023-01-06T19:11:56.510Z,141923.44
2023-01-06T19:17:03.472Z,141940.75
2023-01-06T19:22:19.324Z,141923.44
2023-01-06T19:27:31.833Z,141946.91
2023-01-06T19:32:37.514Z,141956.78
2023-01-06T19:37:41.025Z,141953.06
2023-01-06T19:42:45.814Z,141922.22
2023-01-06T19:47:49.277Z,141902.50
2023-01-06T19:52:55.661Z,141867.88
2023-01-06T19:58:01.870Z,141846.94
2023-01-06T20:03:05.429Z,141844.47
2023-01-06T20:08:08.859Z,141817.31
2023-01-06T20:13:13.689Z,141808.63
2023-01-06T20:18:17.270Z,141801.25
2023-01-06T20:23:20.673Z,141776.56
2023-01-06T20:28:25.739Z,141754.31
2023-01-06T20:33:29.293Z,141737.06
2023-01-06T20:38:46.076Z,141713.63
2023-01-06T20:43:50.872Z,141688.94
2023-01-06T20:48:54.327Z,141682.78
2023-01-06T20:54:00.588Z,141672.88
2023-01-06T20:59:05.526Z,141658.09
2023-01-06T21:04:09.425Z,141648.25
2023-01-06T21:09:12.978Z,141644.50
2023-01-06T21:14:20.225Z,141633.44
2023-01-06T21:19:23.650Z,141629.72
2023-01-06T21:24:27.195Z,141654.41
2023-01-06T21:29:55.196Z,141658.09
2023-01-06T21:34:59.212Z,141670.41
2023-01-06T21:40:05.945Z,141675.41
2023-01-06T21:45:11.341Z,141685.25
2023-01-06T21:50:14.772Z,141690.16
2023-01-06T21:55:18.578Z,141700.03
2023-01-06T22:00:23.336Z,141691.41
2023-01-06T22:05:26.731Z,141681.56
2023-01-06T22:10:30.048Z,141669.19
2023-01-06T22:15:34.717Z,141621.13
2023-01-06T22:20:40.256Z,141603.81
2023-01-06T22:25:43.672Z,141607.53
2023-01-06T22:30:48.440Z,141591.50
